Terminal Aerodrome Forecast
Issued by NWS

Home | Current Version | Previous Version | Text Only | Print | Product List | Glossary On
Versions: 1 2 3 4 5 6 7 8 9 10 11 12 13 14
000
FTUS45 KFGZ 302329
TAFSEZ
TAF
KSEZ 302329Z 3100/3124 08008KT P6SM SCT040 BKN100
      TEMPO 3100/3103 VRB15G25KT 5SM -TSRA BKN080CB
     FM310400 VRB06KT P6SM SCT110 SCT200
      TEMPO 3118/3121 P6SM TSRA BKN070CB
     FM312100 25004KT P6SM BKN250
      TEMPO 3121/3124 P6SM TSRA BKN070CB=

USA.gov is the U.S. government's official web portal to all federal, state and local government web resources and services.